createdAt,value
2019-05-15T00:00:43.452Z,1023.11
2019-05-15T00:01:43.434Z,1023.09
2019-05-15T00:02:43.437Z,1023.10
2019-05-15T00:03:43.638Z,1023.06
2019-05-15T00:04:43.635Z,1023.13
2019-05-15T00:05:43.424Z,1023.09
2019-05-15T00:06:43.437Z,1023.10
2019-05-15T00:07:43.413Z,1023.14
2019-05-15T00:08:43.404Z,1023.16
2019-05-15T00:09:43.407Z,1023.13
2019-05-15T00:10:43.392Z,1023.10
2019-05-15T00:11:43.606Z,1023.13
2019-05-15T00:12:43.583Z,1023.12
2019-05-15T00:13:43.386Z,1023.11
2019-05-15T00:14:43.370Z,1023.11
2019-05-15T00:15:43.579Z,1023.11
2019-05-15T00:16:43.377Z,1023.12
2019-05-15T00:17:43.377Z,1023.16
2019-05-15T00:18:43.351Z,1023.14
2019-05-15T00:19:43.339Z,1023.13
2019-05-15T00:20:43.340Z,1023.12
2019-05-15T00:21:43.352Z,1023.13
2019-05-15T00:22:43.343Z,1023.11
2019-05-15T00:23:43.517Z,1023.08
2019-05-15T00:24:43.314Z,1023.09
2019-05-15T00:25:43.317Z,1023.09
2019-05-15T00:26:43.316Z,1023.07
2019-05-15T00:27:43.519Z,1023.10
2019-05-15T00:28:43.301Z,1023.11
2019-05-15T00:29:43.298Z,1023.06
2019-05-15T00:30:43.278Z,1023.05
2019-05-15T00:31:43.294Z,1023.03
2019-05-15T00:32:43.272Z,1023.04
2019-05-15T00:33:43.282Z,1023.03
2019-05-15T00:34:43.266Z,1023.06
2019-05-15T00:35:43.273Z,1023.01
2019-05-15T00:36:43.254Z,1023.01
2019-05-15T00:37:43.239Z,1023.04
2019-05-15T00:38:43.250Z,1023.02
2019-05-15T00:39:43.235Z,1023.03
2019-05-15T00:40:43.227Z,1023.04
2019-05-15T00:41:51.410Z,1023.02
2019-05-15T00:42:43.217Z,1023.03
2019-05-15T00:43:43.214Z,1023.04
2019-05-15T00:44:43.226Z,1023.01
2019-05-15T00:45:44.462Z,1023.02
2019-05-15T00:46:43.401Z,1023.04
2019-05-15T00:47:43.433Z,1023.00
2019-05-15T00:48:43.198Z,1022.99
2019-05-15T00:49:43.194Z,1022.99
2019-05-15T00:50:43.171Z,1023.02
2019-05-15T00:51:43.180Z,1023.00
2019-05-15T00:52:43.382Z,1023.01
2019-05-15T00:53:43.162Z,1023.00
2019-05-15T00:54:43.166Z,1023.00
2019-05-15T00:55:43.150Z,1023.00
2019-05-15T00:56:43.143Z,1023.02
2019-05-15T00:57:43.336Z,1022.98
2019-05-15T00:58:43.338Z,1022.96
2019-05-15T00:59:43.140Z,1022.95
2019-05-15T01:00:43.140Z,1022.94
2019-05-15T01:01:43.113Z,1023.00
2019-05-15T01:02:43.320Z,1022.93
2019-05-15T01:03:43.121Z,1022.94
2019-05-15T01:04:43.097Z,1022.92
2019-05-15T01:05:43.102Z,1022.93
2019-05-15T01:06:43.095Z,1022.94
2019-05-15T01:07:43.101Z,1022.91
2019-05-15T01:08:43.084Z,1022.90
2019-05-15T01:09:43.070Z,1022.93
2019-05-15T01:10:43.088Z,1022.93
2019-05-15T01:11:43.081Z,1022.93
2019-05-15T01:12:43.271Z,1022.91
2019-05-15T01:13:43.068Z,1022.86
2019-05-15T01:14:43.048Z,1022.87
2019-05-15T01:15:43.250Z,1022.88
2019-05-15T01:16:43.038Z,1022.82
2019-05-15T01:17:43.055Z,1022.80
2019-05-15T01:18:43.023Z,1022.75
2019-05-15T01:19:43.018Z,1022.74
2019-05-15T01:20:43.015Z,1022.73
2019-05-15T01:21:43.024Z,1022.74
2019-05-15T01:22:43.015Z,1022.78
2019-05-15T01:23:43.002Z,1022.75
2019-05-15T01:24:42.992Z,1022.77
2019-05-15T01:25:43.000Z,1022.75
2019-05-15T01:26:42.986Z,1022.74
2019-05-15T01:27:42.990Z,1022.74
2019-05-15T01:28:42.976Z,1022.72
2019-05-15T01:29:45.182Z,1022.68
2019-05-15T01:30:43.166Z,1022.68
2019-05-15T01:31:42.978Z,1022.65
2019-05-15T01:32:43.168Z,1022.63
2019-05-15T01:33:42.974Z,1022.60
2019-05-15T01:34:43.173Z,1022.65
2019-05-15T01:35:42.934Z,1022.68
2019-05-15T01:36:42.947Z,1022.65
2019-05-15T01:37:43.146Z,1022.65
2019-05-15T01:38:42.952Z,1022.62
2019-05-15T01:39:42.920Z,1022.61
2019-05-15T01:40:43.115Z,1022.60
2019-05-15T01:41:42.929Z,1022.58
2019-05-15T01:42:43.111Z,1022.57
2019-05-15T01:43:43.104Z,1022.57
2019-05-15T01:44:42.889Z,1022.57
2019-05-15T01:45:42.906Z,1022.54
2019-05-15T01:46:42.888Z,1022.55
2019-05-15T01:47:42.877Z,1022.55
2019-05-15T01:48:42.901Z,1022.55
2019-05-15T01:49:42.865Z,1022.57
2019-05-15T01:50:42.870Z,1022.58
2019-05-15T01:51:43.057Z,1022.60
2019-05-15T01:52:43.052Z,1022.57
2019-05-15T01:53:42.858Z,1022.53
2019-05-15T01:54:42.851Z,1022.54
2019-05-15T01:55:42.834Z,1022.52
2019-05-15T01:56:42.823Z,1022.52
2019-05-15T01:57:43.029Z,1022.54
2019-05-15T01:58:42.832Z,1022.55
2019-05-15T01:59:53.850Z,1022.53
2019-05-15T02:00:42.814Z,1022.59
2019-05-15T02:01:42.798Z,1022.57
2019-05-15T02:02:42.803Z,1022.54
2019-05-15T02:03:42.789Z,1022.52
2019-05-15T02:04:42.802Z,1022.52
2019-05-15T02:05:42.792Z,1022.51
2019-05-15T02:06:42.792Z,1022.53
2019-05-15T02:07:42.776Z,1022.52
2019-05-15T02:08:42.780Z,1022.52
2019-05-15T02:09:42.765Z,1022.54
2019-05-15T02:10:42.755Z,1022.50
2019-05-15T02:11:42.759Z,1022.49
2019-05-15T02:12:42.957Z,1022.52
2019-05-15T02:13:42.757Z,1022.49
2019-05-15T02:14:42.747Z,1022.50
2019-05-15T02:15:42.731Z,1022.51
2019-05-15T02:16:42.749Z,1022.51
2019-05-15T02:17:42.732Z,1022.49
2019-05-15T02:18:42.711Z,1022.52
2019-05-15T02:19:42.933Z,1022.51
2019-05-15T02:20:42.920Z,1022.51
2019-05-15T02:21:42.695Z,1022.50
2019-05-15T02:22:42.901Z,1022.47
2019-05-15T02:23:42.906Z,1022.52
2019-05-15T02:24:42.684Z,1022.54
2019-05-15T02:25:42.688Z,1022.54
2019-05-15T02:26:42.873Z,1022.53
2019-05-15T02:27:42.669Z,1022.53
2019-05-15T02:28:42.673Z,1022.53
2019-05-15T02:29:42.679Z,1022.55
2019-05-15T02:30:42.685Z,1022.58
2019-05-15T02:31:42.641Z,1022.52
2019-05-15T02:32:42.641Z,1022.53
2019-05-15T02:33:42.653Z,1022.56
2019-05-15T02:34:42.634Z,1022.53
2019-05-15T02:35:42.616Z,1022.53
2019-05-15T02:36:42.629Z,1022.54
2019-05-15T02:37:42.606Z,1022.58
2019-05-15T02:38:42.605Z,1022.58
2019-05-15T02:39:42.595Z,1022.57
2019-05-15T02:40:42.605Z,1022.55
2019-05-15T02:41:42.665Z,1022.50
2019-05-15T02:42:42.582Z,1022.55
2019-05-15T02:43:42.593Z,1022.54
2019-05-15T02:44:42.593Z,1022.53
2019-05-15T02:45:42.783Z,1022.48
2019-05-15T02:46:42.578Z,1022.43
2019-05-15T02:47:42.558Z,1022.48
2019-05-15T02:48:42.580Z,1022.45
2019-05-15T02:49:42.539Z,1022.44
2019-05-15T02:50:42.575Z,1022.45
2019-05-15T02:51:42.546Z,1022.45
2019-05-15T02:52:45.498Z,1022.49
2019-05-15T02:53:42.726Z,1022.49
2019-05-15T02:54:42.717Z,1022.47
2019-05-15T02:55:42.528Z,1022.47
2019-05-15T02:56:42.527Z,1022.48
2019-05-15T02:57:42.708Z,1022.52
2019-05-15T02:58:42.499Z,1022.48
2019-05-15T02:59:42.510Z,1022.49
2019-05-15T03:00:48.288Z,1022.50
2019-05-15T03:01:42.491Z,1022.49
2019-05-15T03:02:42.482Z,1022.49
2019-05-15T03:03:42.672Z,1022.46
2019-05-15T03:04:42.463Z,1022.45
2019-05-15T03:05:42.458Z,1022.45
2019-05-15T03:06:42.462Z,1022.45
2019-05-15T03:07:42.440Z,1022.45
2019-05-15T03:08:42.442Z,1022.45
2019-05-15T03:09:42.446Z,1022.43
2019-05-15T03:10:42.449Z,1022.46
2019-05-15T03:11:42.433Z,1022.45
2019-05-15T03:12:42.413Z,1022.46
2019-05-15T03:13:42.416Z,1022.48
2019-05-15T03:14:42.410Z,1022.45
2019-05-15T03:15:42.398Z,1022.43
2019-05-15T03:16:42.404Z,1022.46
2019-05-15T03:17:42.392Z,1022.47
2019-05-15T03:18:42.606Z,1022.46
2019-05-15T03:19:42.588Z,1022.52
2019-05-15T03:20:42.385Z,1022.50
2019-05-15T03:21:42.365Z,1022.55
2019-05-15T03:22:42.380Z,1022.52
2019-05-15T03:23:42.361Z,1022.51
2019-05-15T03:24:42.549Z,1022.55
2019-05-15T03:25:42.343Z,1022.58
2019-05-15T03:26:42.343Z,1022.56
2019-05-15T03:27:42.334Z,1022.55
2019-05-15T03:28:42.333Z,1022.49
2019-05-15T03:29:42.547Z,1022.47
2019-05-15T03:31:13.089Z,1022.51
2019-05-15T03:31:59.132Z,1022.52
2019-05-15T03:32:52.013Z,1022.54
2019-05-15T03:33:45.505Z,1022.59
2019-05-15T03:34:47.553Z,1022.63
2019-05-15T03:35:44.477Z,1022.60
2019-05-15T03:36:45.176Z,1022.65
2019-05-15T03:37:42.287Z,1022.63
2019-05-15T03:38:42.296Z,1022.63
2019-05-15T03:39:46.526Z,1022.66
2019-05-15T03:40:42.266Z,1022.67
2019-05-15T03:41:42.461Z,1022.69
2019-05-15T03:42:42.270Z,1022.71
2019-05-15T03:43:42.259Z,1022.74
2019-05-15T03:44:42.453Z,1022.72
2019-05-15T03:45:42.265Z,1022.75
2019-05-15T03:46:42.429Z,1022.71
2019-05-15T03:47:42.225Z,1022.72
2019-05-15T03:48:42.229Z,1022.76
2019-05-15T03:49:42.231Z,1022.72
2019-05-15T03:50:42.209Z,1022.75
2019-05-15T03:51:45.725Z,1022.73
2019-05-15T03:52:42.404Z,1022.68
2019-05-15T03:53:42.419Z,1022.72
2019-05-15T03:54:42.399Z,1022.71
2019-05-15T03:55:42.192Z,1022.67
2019-05-15T03:56:42.204Z,1022.73
2019-05-15T03:57:42.177Z,1022.71
2019-05-15T03:58:42.165Z,1022.73
2019-05-15T03:59:42.171Z,1022.70
2019-05-15T04:00:42.173Z,1022.70
2019-05-15T04:01:43.866Z,1022.66
2019-05-15T04:02:42.176Z,1022.66
2019-05-15T04:03:42.148Z,1022.67
2019-05-15T04:04:42.141Z,1022.69
2019-05-15T04:05:42.142Z,1022.70
2019-05-15T04:06:42.143Z,1022.64
2019-05-15T04:07:42.128Z,1022.66
2019-05-15T04:08:42.110Z,1022.65
2019-05-15T04:09:42.112Z,1022.65
2019-05-15T04:10:42.103Z,1022.62
2019-05-15T04:11:42.103Z,1022.64
2019-05-15T04:12:42.098Z,1022.65
2019-05-15T04:13:42.085Z,1022.63
2019-05-15T04:14:42.086Z,1022.64
2019-05-15T04:15:42.083Z,1022.62
2019-05-15T04:16:42.084Z,1022.63
2019-05-15T04:17:42.087Z,1022.65
2019-05-15T04:18:42.275Z,1022.63
2019-05-15T04:19:42.062Z,1022.65
2019-05-15T04:20:42.049Z,1022.62
2019-05-15T04:21:44.990Z,1022.66
2019-05-15T04:22:42.036Z,1022.64
2019-05-15T04:23:42.260Z,1022.67
2019-05-15T04:24:42.056Z,1022.63
2019-05-15T04:25:42.042Z,1022.63
2019-05-15T04:26:42.022Z,1022.66
2019-05-15T04:27:42.211Z,1022.62
2019-05-15T04:28:42.350Z,1022.63
2019-05-15T04:29:42.015Z,1022.62
2019-05-15T04:30:42.193Z,1022.60
2019-05-15T04:31:56.434Z,1022.65
2019-05-15T04:32:41.989Z,1022.62
2019-05-15T04:33:42.180Z,1022.64
2019-05-15T04:34:42.173Z,1022.61
2019-05-15T04:35:41.972Z,1022.62
2019-05-15T04:36:44.578Z,1022.60
2019-05-15T04:37:41.969Z,1022.61
2019-05-15T04:38:41.946Z,1022.58
2019-05-15T04:39:41.942Z,1022.64
2019-05-15T04:40:42.154Z,1022.63
2019-05-15T04:41:41.936Z,1022.64
2019-05-15T04:42:41.941Z,1022.60
2019-05-15T04:43:45.011Z,1022.65
2019-05-15T04:44:41.911Z,1022.64
2019-05-15T04:45:42.130Z,1022.61
2019-05-15T04:46:41.919Z,1022.62
2019-05-15T04:47:41.901Z,1022.61
2019-05-15T04:48:41.926Z,1022.62
2019-05-15T04:49:42.111Z,1022.64
2019-05-15T04:50:41.881Z,1022.64
2019-05-15T04:51:41.884Z,1022.65
2019-05-15T04:52:43.345Z,1022.68
2019-05-15T04:53:41.865Z,1022.63
2019-05-15T04:54:41.856Z,1022.62
2019-05-15T04:55:41.879Z,1022.64
2019-05-15T04:56:42.054Z,1022.61
2019-05-15T04:57:41.836Z,1022.62
2019-05-15T04:58:41.840Z,1022.61
2019-05-15T04:59:41.836Z,1022.59
2019-05-15T05:00:41.825Z,1022.59
2019-05-15T05:01:42.024Z,1022.55
2019-05-15T05:02:41.810Z,1022.55
2019-05-15T05:03:42.023Z,1022.52
2019-05-15T05:04:41.799Z,1022.55
2019-05-15T05:05:41.815Z,1022.53
2019-05-15T05:06:41.808Z,1022.54
2019-05-15T05:07:42.005Z,1022.53
2019-05-15T05:08:42.001Z,1022.53
2019-05-15T05:09:42.002Z,1022.52
2019-05-15T05:10:41.768Z,1022.56
2019-05-15T05:11:41.762Z,1022.57
2019-05-15T05:12:42.664Z,1022.55
2019-05-15T05:13:41.756Z,1022.60
2019-05-15T05:14:41.767Z,1022.61
2019-05-15T05:15:41.763Z,1022.60
2019-05-15T05:16:41.741Z,1022.59
2019-05-15T05:17:41.729Z,1022.61
2019-05-15T05:18:41.940Z,1022.61
2019-05-15T05:19:41.719Z,1022.57
2019-05-15T05:20:41.711Z,1022.60
2019-05-15T05:21:41.911Z,1022.59
2019-05-15T05:22:41.696Z,1022.62
2019-05-15T05:23:41.695Z,1022.65
2019-05-15T05:24:41.688Z,1022.60
2019-05-15T05:25:41.698Z,1022.60
2019-05-15T05:26:41.699Z,1022.60
2019-05-15T05:27:41.673Z,1022.57
2019-05-15T05:28:41.677Z,1022.61
2019-05-15T05:29:41.660Z,1022.62
2019-05-15T05:30:41.659Z,1022.62
2019-05-15T05:31:41.666Z,1022.60
2019-05-15T05:32:41.645Z,1022.61
2019-05-15T05:33:41.635Z,1022.63
2019-05-15T05:34:41.634Z,1022.57
2019-05-15T05:35:41.631Z,1022.58
2019-05-15T05:36:41.623Z,1022.62
2019-05-15T05:37:41.615Z,1022.58
2019-05-15T05:38:41.618Z,1022.61
2019-05-15T05:39:41.612Z,1022.68
2019-05-15T05:40:41.607Z,1022.61
2019-05-15T05:41:41.601Z,1022.64
2019-05-15T05:42:41.592Z,1022.64
2019-05-15T05:43:41.585Z,1022.61
2019-05-15T05:44:42.763Z,1022.64
2019-05-15T05:45:41.581Z,1022.61
2019-05-15T05:46:41.594Z,1022.60
2019-05-15T05:47:41.594Z,1022.62
2019-05-15T05:48:41.570Z,1022.60
2019-05-15T05:49:41.765Z,1022.62
2019-05-15T05:50:44.074Z,1022.63
2019-05-15T05:51:41.557Z,1022.62
2019-05-15T05:52:41.542Z,1022.64
2019-05-15T05:53:41.532Z,1022.69
2019-05-15T05:54:41.525Z,1022.65
2019-05-15T05:55:41.724Z,1022.70
2019-05-15T05:56:41.512Z,1022.68
2019-05-15T05:57:41.515Z,1022.65
2019-05-15T05:58:41.504Z,1022.65
2019-05-15T05:59:41.701Z,1022.61
2019-05-15T06:00:41.490Z,1022.62
2019-05-15T06:01:44.155Z,1022.61
2019-05-15T06:02:47.737Z,1022.61
2019-05-15T06:03:41.480Z,1022.64
2019-05-15T06:04:41.475Z,1022.62
2019-05-15T06:05:41.491Z,1022.68
2019-05-15T06:06:41.488Z,1022.69
2019-05-15T06:07:41.475Z,1022.67
2019-05-15T06:08:41.460Z,1022.65
2019-05-15T06:09:41.452Z,1022.65
2019-05-15T06:10:41.450Z,1022.65
2019-05-15T06:11:41.439Z,1022.65
2019-05-15T06:12:41.448Z,1022.68
2019-05-15T06:13:41.439Z,1022.67
2019-05-15T06:14:41.442Z,1022.65
2019-05-15T06:15:41.430Z,1022.68
2019-05-15T06:16:41.435Z,1022.68
2019-05-15T06:17:41.435Z,1022.70
2019-05-15T06:18:41.404Z,1022.72
2019-05-15T06:19:41.397Z,1022.74
2019-05-15T06:20:41.407Z,1022.69
2019-05-15T06:21:53.596Z,1022.73
2019-05-15T06:22:41.392Z,1022.74
2019-05-15T06:23:45.142Z,1022.76
2019-05-15T06:24:41.583Z,1022.73
2019-05-15T06:25:41.373Z,1022.71
2019-05-15T06:26:41.362Z,1022.68
2019-05-15T06:27:41.373Z,1022.67
2019-05-15T06:28:41.356Z,1022.68
2019-05-15T06:29:41.365Z,1022.67
2019-05-15T06:30:41.350Z,1022.68
2019-05-15T06:31:41.352Z,1022.70
2019-05-15T06:32:41.351Z,1022.82
2019-05-15T06:33:41.353Z,1022.76
2019-05-15T06:34:41.337Z,1022.73
2019-05-15T06:35:41.340Z,1022.75
2019-05-15T06:36:41.321Z,1022.77
2019-05-15T06:37:41.315Z,1022.77
2019-05-15T06:38:41.313Z,1022.76
2019-05-15T06:39:41.307Z,1022.73
2019-05-15T06:40:41.323Z,1022.75
2019-05-15T06:41:41.304Z,1022.73
2019-05-15T06:42:41.292Z,1022.70
2019-05-15T06:43:41.287Z,1022.73
2019-05-15T06:44:41.282Z,1022.74
2019-05-15T06:45:41.293Z,1022.75
2019-05-15T06:46:41.290Z,1022.75
2019-05-15T06:47:41.286Z,1022.73
2019-05-15T06:48:41.277Z,1022.66
2019-05-15T06:49:41.472Z,1022.67
2019-05-15T06:50:41.269Z,1022.68
2019-05-15T06:51:41.261Z,1022.68
2019-05-15T06:52:41.260Z,1022.69
2019-05-15T06:53:41.269Z,1022.67
2019-05-15T06:54:41.239Z,1022.68
2019-05-15T06:55:41.248Z,1022.67
2019-05-15T06:56:41.227Z,1022.70
2019-05-15T06:57:41.226Z,1022.66
2019-05-15T06:58:41.438Z,1022.70
2019-05-15T06:59:41.224Z,1022.68
2019-05-15T07:00:41.226Z,1022.69
2019-05-15T07:01:41.219Z,1022.65
2019-05-15T07:02:41.224Z,1022.69
2019-05-15T07:03:41.211Z,1022.67
2019-05-15T07:04:41.196Z,1022.66
2019-05-15T07:05:41.230Z,1022.69
2019-05-15T07:06:41.187Z,1022.68
2019-05-15T07:07:41.177Z,1022.73
2019-05-15T07:08:41.184Z,1022.70
2019-05-15T07:09:41.183Z,1022.70
2019-05-15T07:10:41.185Z,1022.74
2019-05-15T07:11:41.166Z,1022.72
2019-05-15T07:12:41.166Z,1022.68
2019-05-15T07:13:41.361Z,1022.74
2019-05-15T07:14:41.163Z,1022.71
2019-05-15T07:15:41.148Z,1022.68
2019-05-15T07:16:41.174Z,1022.63
2019-05-15T07:17:41.352Z,1022.67
2019-05-15T07:18:41.332Z,1022.64
2019-05-15T07:19:41.127Z,1022.70
2019-05-15T07:20:41.336Z,1022.69
2019-05-15T07:21:41.137Z,1022.72
2019-05-15T07:22:41.117Z,1022.67
2019-05-15T07:23:41.129Z,1022.64
2019-05-15T07:24:41.310Z,1022.63
2019-05-15T07:25:41.109Z,1022.64
2019-05-15T07:26:41.094Z,1022.65
2019-05-15T07:27:41.106Z,1022.56
2019-05-15T07:28:41.084Z,1022.54
2019-05-15T07:29:41.087Z,1022.59
2019-05-15T07:30:41.421Z,1022.60
2019-05-15T07:31:41.073Z,1022.58
2019-05-15T07:32:41.420Z,1022.58
2019-05-15T07:33:43.920Z,1022.64
2019-05-15T07:34:41.283Z,1022.59
2019-05-15T07:35:41.065Z,1022.57
2019-05-15T07:36:41.054Z,1022.57
2019-05-15T07:37:41.073Z,1022.56
2019-05-15T07:38:41.045Z,1022.56
2019-05-15T07:39:41.040Z,1022.53
2019-05-15T07:40:41.047Z,1022.55
2019-05-15T07:41:41.040Z,1022.56
2019-05-15T07:42:41.040Z,1022.52
2019-05-15T07:43:41.035Z,1022.52
2019-05-15T07:44:41.224Z,1022.55
2019-05-15T07:45:43.840Z,1022.53
2019-05-15T07:46:41.011Z,1022.55
2019-05-15T07:47:41.233Z,1022.58
2019-05-15T07:48:43.884Z,1022.53
2019-05-15T07:49:41.018Z,1022.53
2019-05-15T07:50:41.011Z,1022.54
2019-05-15T07:51:40.991Z,1022.63
2019-05-15T07:52:41.218Z,1022.60
2019-05-15T07:53:41.186Z,1022.59
2019-05-15T07:54:40.993Z,1022.66
2019-05-15T07:55:41.193Z,1022.65
2019-05-15T07:56:40.980Z,1022.57
2019-05-15T07:57:41.186Z,1022.58
2019-05-15T07:58:41.174Z,1022.64
2019-05-15T07:59:40.959Z,1022.65
2019-05-15T08:00:40.969Z,1022.60
2019-05-15T08:01:40.954Z,1022.81
2019-05-15T08:02:40.954Z,1022.75
2019-05-15T08:03:55.533Z,1022.70
2019-05-15T08:04:41.178Z,1022.67
2019-05-15T08:05:55.183Z,1022.57
2019-05-15T08:06:40.946Z,1022.56
2019-05-15T08:07:41.152Z,1022.54
2019-05-15T08:08:40.935Z,1022.53
2019-05-15T08:09:40.936Z,1022.50
2019-05-15T08:10:40.927Z,1022.51
2019-05-15T08:11:40.921Z,1022.49
2019-05-15T08:12:41.120Z,1022.48
2019-05-15T08:13:41.139Z,1022.56
2019-05-15T08:14:40.918Z,1022.51
2019-05-15T08:15:40.911Z,1022.47
2019-05-15T08:16:40.920Z,1022.46
2019-05-15T08:18:02.774Z,1022.47
2019-05-15T08:18:40.892Z,1022.42
2019-05-15T08:19:40.905Z,1022.41
2019-05-15T08:20:40.890Z,1022.42
2019-05-15T08:21:41.105Z,1022.43
2019-05-15T08:22:40.884Z,1022.38
2019-05-15T08:23:40.889Z,1022.33
2019-05-15T08:24:40.887Z,1022.39
2019-05-15T08:25:40.871Z,1022.38
2019-05-15T08:26:45.242Z,1022.38
2019-05-15T08:27:40.870Z,1022.39
2019-05-15T08:28:40.853Z,1022.42
2019-05-15T08:29:41.057Z,1022.39
2019-05-15T08:30:40.878Z,1022.37
2019-05-15T08:31:40.873Z,1022.33
2019-05-15T08:32:40.850Z,1022.34
2019-05-15T08:33:40.859Z,1022.35
2019-05-15T08:34:40.831Z,1022.35
2019-05-15T08:35:45.684Z,1022.46
2019-05-15T08:36:40.839Z,1022.36
2019-05-15T08:37:40.830Z,1022.31
2019-05-15T08:38:40.821Z,1022.30
2019-05-15T08:39:40.824Z,1022.25
2019-05-15T08:40:41.274Z,1022.21
2019-05-15T08:41:40.815Z,1022.26
2019-05-15T08:42:42.063Z,1022.31
2019-05-15T08:43:40.813Z,1022.23
2019-05-15T08:44:40.797Z,1022.27
2019-05-15T08:45:40.798Z,1022.22
2019-05-15T08:46:44.157Z,1022.13
2019-05-15T08:47:40.778Z,1022.07
2019-05-15T08:48:40.781Z,1021.99
2019-05-15T08:49:41.219Z,1022.07
2019-05-15T08:50:40.986Z,1022.11
2019-05-15T08:51:40.764Z,1022.06
2019-05-15T08:52:40.760Z,1022.09
2019-05-15T08:53:40.765Z,1022.10
2019-05-15T08:54:40.757Z,1022.02
2019-05-15T08:55:40.749Z,1022.03
2019-05-15T08:56:40.744Z,1022.09
2019-05-15T08:57:40.961Z,1022.11
2019-05-15T08:58:40.953Z,1022.06
2019-05-15T08:59:40.735Z,1022.08
2019-05-15T09:00:43.771Z,1022.08
2019-05-15T09:01:40.739Z,1022.01
2019-05-15T09:02:40.739Z,1022.00
2019-05-15T09:03:40.929Z,1021.97
2019-05-15T09:04:40.725Z,1021.92
2019-05-15T09:05:40.711Z,1021.95
2019-05-15T09:06:41.592Z,1021.88
2019-05-15T09:07:40.707Z,1021.88
2019-05-15T09:08:40.716Z,1021.89
2019-05-15T09:09:40.712Z,1021.81
2019-05-15T09:10:40.695Z,1021.85
2019-05-15T09:11:40.695Z,1021.78
2019-05-15T09:12:40.688Z,1021.79
2019-05-15T09:13:43.137Z,1021.78
2019-05-15T09:14:40.689Z,1021.71
2019-05-15T09:15:40.682Z,1021.79
2019-05-15T09:16:40.665Z,1021.85
2019-05-15T09:17:40.875Z,1021.86
2019-05-15T09:18:40.663Z,1021.85
2019-05-15T09:19:40.858Z,1021.84
2019-05-15T09:20:40.853Z,1021.81
2019-05-15T09:21:40.647Z,1021.77
2019-05-15T09:22:40.860Z,1021.84
2019-05-15T09:23:40.649Z,1021.82
2019-05-15T09:24:40.634Z,1021.74
2019-05-15T09:25:40.637Z,1021.70
2019-05-15T09:26:40.718Z,1021.71
2019-05-15T09:27:40.634Z,1021.71
2019-05-15T09:28:40.641Z,1021.68
2019-05-15T09:29:40.618Z,1021.66
2019-05-15T09:30:40.627Z,1021.63
2019-05-15T09:31:40.614Z,1021.52
2019-05-15T09:32:40.616Z,1021.62
2019-05-15T09:33:40.602Z,1021.65
2019-05-15T09:34:50.492Z,1021.59
2019-05-15T09:35:40.611Z,1021.63
2019-05-15T09:36:44.963Z,1021.66
2019-05-15T09:37:40.586Z,1021.58
2019-05-15T09:38:40.583Z,1021.57
2019-05-15T09:39:40.585Z,1021.59
2019-05-15T09:40:46.282Z,1021.59
2019-05-15T09:41:40.576Z,1021.52
2019-05-15T09:42:40.790Z,1021.62
2019-05-15T09:43:42.476Z,1021.54
2019-05-15T09:44:40.564Z,1021.54
2019-05-15T09:45:40.769Z,1021.48
2019-05-15T09:46:40.560Z,1021.51
2019-05-15T09:47:40.567Z,1021.47
2019-05-15T09:48:40.572Z,1021.42
2019-05-15T09:49:40.563Z,1021.41
2019-05-15T09:50:40.550Z,1021.44
2019-05-15T09:51:40.550Z,1021.50
2019-05-15T09:52:40.743Z,1021.44
2019-05-15T09:53:40.529Z,1021.45
2019-05-15T09:54:40.731Z,1021.42
2019-05-15T09:55:40.523Z,1021.39
2019-05-15T09:56:40.755Z,1021.45
2019-05-15T09:57:40.524Z,1021.36
2019-05-15T09:58:40.529Z,1021.44
2019-05-15T09:59:40.517Z,1021.45
2019-05-15T10:00:40.507Z,1021.48
2019-05-15T10:01:40.502Z,1021.41
2019-05-15T10:02:40.702Z,1021.43
2019-05-15T10:03:44.400Z,1021.45
2019-05-15T10:04:40.499Z,1021.37
2019-05-15T10:05:40.493Z,1021.38
2019-05-15T10:06:40.482Z,1021.38
2019-05-15T10:07:40.668Z,1021.45
2019-05-15T10:08:40.475Z,1021.41
2019-05-15T10:09:40.485Z,1021.44
2019-05-15T10:10:40.491Z,1021.39
2019-05-15T10:11:40.481Z,1021.39
2019-05-15T10:12:40.481Z,1021.34
2019-05-15T10:13:40.482Z,1021.38
2019-05-15T10:14:40.468Z,1021.41
2019-05-15T10:15:40.450Z,1021.30
2019-05-15T10:16:40.442Z,1021.35
2019-05-15T10:17:40.452Z,1021.36
2019-05-15T10:18:40.437Z,1021.32
2019-05-15T10:19:40.456Z,1021.36
2019-05-15T10:20:40.465Z,1021.31
2019-05-15T10:21:40.525Z,1021.24
2019-05-15T10:22:40.441Z,1021.28
2019-05-15T10:23:40.661Z,1021.31
2019-05-15T10:24:40.417Z,1021.27
2019-05-15T10:25:40.626Z,1021.28
2019-05-15T10:26:40.427Z,1021.23
2019-05-15T10:27:40.410Z,1021.25
2019-05-15T10:28:40.800Z,1021.26
2019-05-15T10:29:40.413Z,1021.29
2019-05-15T10:30:40.611Z,1021.15
2019-05-15T10:31:40.397Z,1021.13
2019-05-15T10:32:40.405Z,1021.22
2019-05-15T10:33:40.390Z,1021.24
2019-05-15T10:34:40.403Z,1021.17
2019-05-15T10:35:40.597Z,1021.18
2019-05-15T10:36:40.380Z,1021.17
2019-05-15T10:37:40.594Z,1021.14
2019-05-15T10:38:40.589Z,1021.15
2019-05-15T10:39:40.362Z,1021.18
2019-05-15T10:40:58.154Z,1021.09
2019-05-15T10:41:40.354Z,1021.13
2019-05-15T10:42:40.554Z,1021.19
2019-05-15T10:43:45.836Z,1021.17
2019-05-15T10:44:40.351Z,1021.16
2019-05-15T10:45:42.309Z,1021.13
2019-05-15T10:46:40.348Z,1021.15
2019-05-15T10:47:40.339Z,1021.10
2019-05-15T10:48:40.324Z,1021.04
2019-05-15T10:49:40.537Z,1021.04
2019-05-15T10:50:40.541Z,1021.01
2019-05-15T10:51:40.523Z,1021.09
2019-05-15T10:52:40.326Z,1021.02
2019-05-15T10:53:40.320Z,1021.10
2019-05-15T10:54:40.312Z,1021.05
2019-05-15T10:55:40.332Z,1021.02
2019-05-15T10:56:40.304Z,1021.09
2019-05-15T10:57:43.380Z,1021.02
2019-05-15T10:58:40.293Z,1021.02
2019-05-15T10:59:40.316Z,1021.04
2019-05-15T11:00:40.297Z,1021.03
2019-05-15T11:01:40.295Z,1020.96
2019-05-15T11:02:40.289Z,1020.92
2019-05-15T11:03:40.302Z,1020.97
2019-05-15T11:04:40.270Z,1020.95
2019-05-15T11:05:45.399Z,1020.91
2019-05-15T11:06:40.269Z,1020.91
2019-05-15T11:07:40.476Z,1020.85
2019-05-15T11:08:40.912Z,1020.78
2019-05-15T11:09:40.587Z,1020.85
2019-05-15T11:10:41.925Z,1020.86
2019-05-15T11:11:40.251Z,1020.82
2019-05-15T11:12:40.249Z,1020.83
2019-05-15T11:13:40.238Z,1020.83
2019-05-15T11:14:40.235Z,1020.86
2019-05-15T11:15:42.552Z,1020.82
2019-05-15T11:16:40.432Z,1020.73
2019-05-15T11:17:40.227Z,1020.78
2019-05-15T11:18:40.447Z,1020.80
2019-05-15T11:19:40.790Z,1020.77
2019-05-15T11:20:41.355Z,1020.83
2019-05-15T11:21:43.383Z,1020.79
2019-05-15T11:22:42.987Z,1020.72
2019-05-15T11:23:42.611Z,1020.71
2019-05-15T11:24:40.198Z,1020.70
2019-05-15T11:25:40.193Z,1020.75
2019-05-15T11:26:40.420Z,1020.66
2019-05-15T11:27:40.424Z,1020.69
2019-05-15T11:28:40.223Z,1020.67
2019-05-15T11:29:40.181Z,1020.60
2019-05-15T11:30:40.384Z,1020.54
2019-05-15T11:31:40.174Z,1020.57
2019-05-15T11:32:40.174Z,1020.57
2019-05-15T11:33:40.173Z,1020.57
2019-05-15T11:34:40.164Z,1020.58
2019-05-15T11:35:56.463Z,1020.54
2019-05-15T11:36:40.158Z,1020.51
2019-05-15T11:37:45.665Z,1020.51
2019-05-15T11:38:40.177Z,1020.53
2019-05-15T11:39:45.732Z,1020.46
2019-05-15T11:40:40.155Z,1020.45
2019-05-15T11:41:40.161Z,1020.50
2019-05-15T11:42:40.144Z,1020.53
2019-05-15T11:43:40.135Z,1020.52
2019-05-15T11:44:40.122Z,1020.44
2019-05-15T11:45:40.118Z,1020.36
2019-05-15T11:46:40.120Z,1020.44
2019-05-15T11:47:40.489Z,1020.49
2019-05-15T11:48:40.117Z,1020.42
2019-05-15T11:49:40.310Z,1020.41
2019-05-15T11:50:40.301Z,1020.47
2019-05-15T11:51:40.100Z,1020.44
2019-05-15T11:52:40.713Z,1020.34
2019-05-15T11:53:40.134Z,1020.35
2019-05-15T11:54:40.103Z,1020.34
2019-05-15T11:55:40.089Z,1020.35
2019-05-15T11:56:40.323Z,1020.31
2019-05-15T11:57:46.826Z,1020.35
2019-05-15T11:58:40.092Z,1020.33
2019-05-15T11:59:44.935Z,1020.32
2019-05-15T12:00:40.097Z,1020.32
2019-05-15T12:01:40.282Z,1020.26
2019-05-15T12:02:40.063Z,1020.21
2019-05-15T12:03:40.091Z,1020.18
2019-05-15T12:04:40.063Z,1020.22
2019-05-15T12:05:40.065Z,1020.32